Chestertown, Maryland
Current Conditions -  °F | °C
As of 6:50 PM on Monday 22 Dec 2014 (Local Time) from KMTN Reporting Station
Light Rain Light Rain  
Wind Chill: 34°   Ceiling: 1400
Heat Index: 37°   Visibility: 2mi
Dew Point: 37°   Wind: 5mph
Humidity: 100%   Direction: 340°NNW
Pressure: 30.17"   Gusts: NA
Location:  39.22°N, 76.07°W
Report Text: KMTN 222350Z 34004KT 2SM -RA SCT007 BKN014 OVC019 03/03 A3017
Loading
Personal Weather Stations






























Interactive Weather Map New forecast layout! Learn more

10-Day Weather Forecast

Advertisements
Track Severe Weather on mobile